Time;durP1;ratioP1;P1;durP2;ratioP2;P2;SDS_P1;SDS_P2;PMS_P1;PMS_P2;Temp;Humidity;BMP_temperature;BMP_pressure;BME280_temperature;BME280_humidity;BME280_pressure;Samples;Min_cycle;Max_cycle;Signal;HPM_P1;HPM_P2
2022/10/09 00:01:32;;;;;;;38.70;24.40;;;;;;;14.61;64.93;99357.60;103030;1298;109622;-73
2022/10/09 00:04:00;;;;;;;40.90;24.30;;;;;;;14.60;65.59;99364.09;103090;1297;97274;-74
2022/10/09 00:06:32;;;;;;;38.20;23.80;;;;;;;14.56;65.18;99368.15;103109;1298;107390;-75
2022/10/09 00:09:02;;;;;;;39.90;25.90;;;;;;;14.55;65.11;99371.69;103141;1295;96556;-73
2022/10/09 00:11:33;;;;;;;41.20;25.60;;;;;;;14.52;65.19;99380.98;103075;1296;96631;-73
2022/10/09 00:14:04;;;;;;;38.00;24.70;;;;;;;14.48;65.27;99381.50;103081;1293;109770;-75
2022/10/09 00:16:32;;;;;;;40.30;24.10;;;;;;;14.44;65.18;99379.70;103027;1294;95105;-75
2022/10/09 00:19:03;;;;;;;36.80;25.30;;;;;;;14.42;65.27;99382.39;103039;1297;107459;-74
2022/10/09 00:21:33;;;;;;;41.00;26.80;;;;;;;14.39;65.49;99378.14;103135;1291;96594;-74
2022/10/09 00:24:04;;;;;;;37.80;24.70;;;;;;;14.36;65.38;99369.63;103130;1297;96537;-74
2022/10/09 00:26:32;;;;;;;40.30;24.60;;;;;;;14.33;65.49;99375.07;103095;1296;109784;-75
2022/10/09 00:29:03;;;;;;;38.40;24.70;;;;;;;14.32;65.44;99377.65;103113;1294;97155;-75
2022/10/09 00:31:31;;;;;;;43.80;27.40;;;;;;;14.30;65.50;99380.68;103050;1303;107509;-74
2022/10/09 00:34:00;;;;;;;36.10;25.00;;;;;;;14.26;65.67;99379.94;103014;1296;96465;-74
2022/10/09 00:36:30;;;;;;;35.60;23.10;;;;;;;14.24;65.69;99377.64;102986;1297;97628;-73
2022/10/09 00:38:58;;;;;;;36.80;24.80;;;;;;;14.24;65.73;99380.16;102975;1297;109534;-74
2022/10/09 00:41:30;;;;;;;39.60;25.10;;;;;;;14.21;65.78;99379.29;103029;1296;96281;-74
2022/10/09 00:44:22;;;;;;;39.50;24.50;;;;;;;14.19;65.83;99381.80;103021;1296;107312;-74
2022/10/09 00:46:51;;;;;;;37.20;22.10;;;;;;;14.18;66.32;99380.66;102989;1298;96595;-74
2022/10/09 00:49:33;;;;;;;35.10;23.00;;;;;;;14.15;66.34;99378.38;103044;1298;94355;-74
2022/10/09 00:52:04;;;;;;;38.10;22.80;;;;;;;14.12;66.43;99378.80;102984;1296;109582;-75
2022/10/09 00:54:37;;;;;;;36.70;24.00;;;;;;;14.10;66.27;99384.81;102970;1297;96540;-74
2022/10/09 00:57:07;;;;;;;37.50;22.90;;;;;;;14.09;66.22;99382.74;103091;1289;107441;-75
2022/10/09 00:59:37;;;;;;;36.30;23.40;;;;;;;14.08;66.54;99391.18;103046;1297;96594;-74
2022/10/09 01:02:07;;;;;;;34.40;23.20;;;;;;;14.08;66.37;99388.03;103042;1297;96664;-74
2022/10/09 01:04:35;;;;;;;37.00;23.80;;;;;;;14.08;66.73;99389.28;103034;1297;109835;-75
2022/10/09 01:07:31;;;;;;;35.80;22.90;;;;;;;14.06;66.69;99391.37;103071;1290;96320;-74
2022/10/09 01:10:04;;;;;;;39.00;24.30;;;;;;;14.07;66.99;99395.26;103012;1304;107505;-75
2022/10/09 01:12:52;;;;;;;39.90;24.70;;;;;;;14.04;66.55;99393.69;103071;1297;94922;-76
2022/10/09 01:15:49;;;;;;;34.00;21.40;;;;;;;14.01;66.67;99397.67;103060;1297;96627;-75
2022/10/09 01:18:43;;;;;;;34.20;22.60;;;;;;;13.99;66.54;99406.91;103086;1290;108987;-75
2022/10/09 01:21:19;;;;;;;35.00;21.70;;;;;;;13.96;66.63;99410.76;103116;1303;96530;-76
2022/10/09 01:24:02;;;;;;;33.20;21.60;;;;;;;13.92;66.64;99408.54;103146;1295;107123;-75
2022/10/09 01:26:54;;;;;;;34.50;21.80;;;;;;;13.90;66.74;99402.31;103187;1297;96615;-76
2022/10/09 01:29:27;;;;;;;35.00;21.90;;;;;;;13.89;66.91;99404.86;103221;1296;96602;-74
2022/10/09 01:31:58;;;;;;;36.60;20.50;;;;;;;13.87;67.05;99412.18;103143;1296;109803;-74
2022/10/09 01:34:29;;;;;;;31.50;21.40;;;;;;;13.86;66.99;99412.08;103126;1304;96511;-72
2022/10/09 01:36:59;;;;;;;34.10;21.50;;;;;;;13.85;67.01;99411.65;103131;1297;107477;-74
2022/10/09 01:39:30;;;;;;;37.20;20.80;;;;;;;13.84;66.97;99416.86;103064;1297;97560;-74
2022/10/09 01:42:02;;;;;;;35.20;21.60;;;;;;;13.83;67.08;99420.00;103110;1296;97070;-74
2022/10/09 01:44:33;;;;;;;35.90;20.30;;;;;;;13.80;67.00;99420.94;103039;1294;109461;-74
2022/10/09 01:47:08;;;;;;;32.20;20.80;;;;;;;13.78;67.41;99425.88;103101;1304;96701;-74
2022/10/09 01:49:36;;;;;;;35.10;21.00;;;;;;;13.75;67.09;99432.20;103034;1298;107415;-74
2022/10/09 01:52:18;;;;;;;34.80;22.00;;;;;;;13.73;67.20;99435.05;102971;1297;96537;-74
2022/10/09 01:54:55;;;;;;;33.10;19.90;;;;;;;13.70;67.30;99437.05;103053;1296;96560;-75
2022/10/09 01:57:41;;;;;;;35.70;21.10;;;;;;;13.67;67.41;99436.02;103032;1299;109815;-73
2022/10/09 02:00:12;;;;;;;33.20;21.00;;;;;;;13.65;67.48;99441.14;103064;1296;95078;-74
2022/10/09 02:02:43;;;;;;;31.20;19.30;;;;;;;13.63;67.16;99444.00;103080;1302;106712;-75
2022/10/09 02:05:18;;;;;;;37.00;19.30;;;;;;;13.61;67.25;99449.55;103123;1307;96522;-76
2022/10/09 02:07:48;;;;;;;31.40;18.20;;;;;;;13.60;67.47;99443.40;103124;1304;95540;-74
2022/10/09 02:10:20;;;;;;;30.30;17.50;;;;;;;13.59;67.40;99440.23;103071;1304;109878;-75
2022/10/09 02:12:59;;;;;;;32.40;17.90;;;;;;;13.58;67.36;99441.77;103071;1290;96680;-75
2022/10/09 02:16:01;;;;;;;29.00;16.60;;;;;;;13.57;67.41;99440.77;103059;1302;107573;-74
2022/10/09 02:18:44;;;;;;;29.30;15.80;;;;;;;13.52;67.45;99441.29;102358;1313;96622;-74
2022/10/09 02:21:26;;;;;;;31.90;15.90;;;;;;;13.51;67.55;99440.48;103089;1290;96523;-75
2022/10/09 02:23:57;;;;;;;32.50;14.90;;;;;;;13.49;67.55;99443.18;103051;1302;109806;-76
2022/10/09 02:26:25;;;;;;;28.50;15.40;;;;;;;13.47;67.55;99450.25;103136;1287;96562;-75
2022/10/09 02:28:53;;;;;;;26.40;13.40;;;;;;;13.45;67.54;99455.27;103117;1296;107169;-75
2022/10/09 02:31:27;;;;;;;25.80;12.60;;;;;;;13.41;67.48;99455.16;103057;1303;94245;-74
2022/10/09 02:34:04;;;;;;;25.40;12.00;;;;;;;13.37;67.42;99454.55;103087;1303;96573;-74
2022/10/09 02:36:34;;;;;;;26.10;11.90;;;;;;;13.34;67.47;99455.67;103175;1296;109445;-76
2022/10/09 02:39:04;;;;;;;26.00;10.70;;;;;;;13.33;67.68;99451.54;103090;1291;94330;-76
2022/10/09 02:41:32;;;;;;;24.20;11.40;;;;;;;13.30;67.48;99451.41;103132;1297;107327;-75
2022/10/09 02:44:05;;;;;;;27.10;11.80;;;;;;;13.28;67.52;99463.64;103122;1297;96589;-75
2022/10/09 02:46:33;;;;;;;23.00;11.70;;;;;;;13.28;67.61;99471.67;103126;1298;97270;-75
2022/10/09 02:49:01;;;;;;;26.20;12.40;;;;;;;13.29;67.69;99471.98;103079;1297;109551;-76
2022/10/09 02:51:31;;;;;;;23.30;13.10;;;;;;;13.28;67.71;99476.80;103142;1288;94347;-75
2022/10/09 02:53:58;;;;;;;27.90;13.90;;;;;;;13.27;67.83;99482.20;103078;1295;106606;-75
2022/10/09 02:56:28;;;;;;;27.50;14.10;;;;;;;13.25;67.78;99482.52;103046;1304;96595;-75
2022/10/09 02:58:56;;;;;;;24.90;13.40;;;;;;;13.26;67.76;99487.31;103074;1303;96515;-73
2022/10/09 03:01:24;;;;;;;29.70;15.10;;;;;;;13.27;67.82;99489.95;103020;1300;109779;-73
2022/10/09 03:03:54;;;;;;;27.40;15.60;;;;;;;13.25;67.78;99489.64;103133;1300;96626;-74
2022/10/09 03:06:24;;;;;;;27.10;14.60;;;;;;;13.23;67.81;99491.77;103243;1295;107115;-74
2022/10/09 03:08:54;;;;;;;27.20;13.90;;;;;;;13.20;68.05;99496.64;103114;1298;96620;-74
2022/10/09 03:11:24;;;;;;;26.80;13.70;;;;;;;13.18;67.91;99505.70;103035;1297;96656;-74
2022/10/09 03:13:53;;;;;;;24.20;12.90;;;;;;;13.14;67.90;99509.72;103158;1298;109783;-73
2022/10/09 03:16:24;;;;;;;25.80;13.00;;;;;;;13.10;68.03;99508.08;103156;1304;94350;-73
2022/10/09 03:18:53;;;;;;;29.20;13.10;;;;;;;13.08;68.02;99517.15;103120;1297;107533;-73
2022/10/09 03:21:27;;;;;;;26.70;12.30;;;;;;;13.05;68.00;99522.19;103074;1303;94285;-73
2022/10/09 03:23:55;;;;;;;24.90;12.60;;;;;;;13.02;68.06;99525.85;103111;1293;94243;-73
2022/10/09 03:26:26;;;;;;;26.50;12.20;;;;;;;12.97;67.97;99527.60;103136;1305;108872;-73
2022/10/09 03:28:56;;;;;;;23.90;11.20;;;;;;;12.94;68.13;99540.06;103068;1299;94312;-74
2022/10/09 03:31:25;;;;;;;25.10;11.20;;;;;;;12.91;68.13;99540.30;103113;1304;107041;-74
2022/10/09 03:34:15;;;;;;;26.60;11.50;;;;;;;12.86;68.10;99549.98;103112;1296;94259;-75
2022/10/09 03:36:42;;;;;;;25.30;10.30;;;;;;;12.79;68.10;99550.26;103075;1297;94332;-75
2022/10/09 03:39:12;;;;;;;23.80;10.90;;;;;;;12.74;68.35;99552.42;103098;1297;109821;-75
2022/10/09 03:41:40;;;;;;;24.50;10.60;;;;;;;12.70;68.22;99553.95;103199;1295;94419;-76
2022/10/09 03:44:07;;;;;;;23.70;9.70;;;;;;;12.67;68.25;99558.42;103105;1296;106505;-77
2022/10/09 03:46:35;;;;;;;23.80;9.90;;;;;;;12.62;68.09;99556.34;103119;1296;96661;-76
2022/10/09 03:49:05;;;;;;;22.10;9.40;;;;;;;12.58;68.22;99558.95;103149;1304;96510;-74
2022/10/09 03:51:32;;;;;;;19.10;8.20;;;;;;;12.56;68.30;99563.73;103037;1304;108774;-75
2022/10/09 03:54:00;;;;;;;26.60;8.80;;;;;;;12.50;68.28;99559.52;103063;1296;96542;-75
2022/10/09 03:56:28;;;;;;;20.20;8.40;;;;;;;12.46;68.36;99560.33;103114;1297;109224;-74
2022/10/09 03:58:56;;;;;;;24.30;9.10;;;;;;;12.43;68.24;99562.52;103161;1295;96649;-75
2022/10/09 04:01:23;;;;;;;20.90;8.10;;;;;;;12.39;68.29;99565.49;103199;1303;94232;-76
2022/10/09 04:03:51;;;;;;;24.00;7.50;;;;;;;12.35;68.41;99570.52;103082;1303;109826;-75
2022/10/09 04:06:19;;;;;;;21.60;7.60;;;;;;;12.33;68.27;99569.80;103191;1297;96563;-74
2022/10/09 04:08:47;;;;;;;19.90;7.50;;;;;;;12.30;68.24;99567.65;103148;1304;107477;-75
2022/10/09 04:11:14;;;;;;;17.00;6.80;;;;;;;12.30;68.31;99571.44;103088;1296;96621;-75
2022/10/09 04:13:42;;;;;;;20.30;6.70;;;;;;;12.28;68.23;99574.25;103160;1295;96528;-75
2022/10/09 04:16:12;;;;;;;18.90;7.10;;;;;;;12.25;68.34;99575.51;103112;1297;109944;-76
2022/10/09 04:18:43;;;;;;;22.20;7.00;;;;;;;12.24;68.34;99581.65;103126;1296;96476;-74
2022/10/09 04:21:11;;;;;;;24.30;8.80;;;;;;;12.21;68.24;99588.04;103070;1304;106740;-74
2022/10/09 04:23:43;;;;;;;20.00;7.50;;;;;;;12.18;68.32;99592.36;103076;1304;96658;-74
2022/10/09 04:26:12;;;;;;;23.40;8.50;;;;;;;12.16;68.27;99594.86;103055;1298;96486;-75
2022/10/09 04:28:41;;;;;;;18.10;7.30;;;;;;;12.12;68.31;99601.37;103057;1293;109713;-75
2022/10/09 04:31:11;;;;;;;19.10;7.20;;;;;;;12.08;68.34;99602.88;103040;1297;96668;-76
2022/10/09 04:33:39;;;;;;;23.50;6.70;;;;;;;12.03;68.25;99603.33;103090;1288;109000;-74
2022/10/09 04:36:07;;;;;;;18.90;6.20;;;;;;;11.99;68.38;99603.84;103169;1296;97173;-74
2022/10/09 04:38:35;;;;;;;16.80;5.70;;;;;;;11.95;68.38;99602.50;103185;1304;96535;-74
2022/10/09 04:41:06;;;;;;;15.80;6.30;;;;;;;11.92;68.48;99608.91;103203;1300;109775;-74
2022/10/09 04:43:35;;;;;;;17.00;6.30;;;;;;;11.89;68.61;99617.83;102445;1291;862836;-75
2022/10/09 04:46:06;;;;;;;15.80;6.40;;;;;;;11.86;68.56;99624.08;103128;1297;107376;-74
2022/10/09 04:48:44;;;;;;;19.00;6.50;;;;;;;11.82;68.47;99625.98;103121;1301;96764;-73
2022/10/09 04:51:13;;;;;;;19.40;6.10;;;;;;;11.78;68.53;99629.22;103095;1304;97180;-74
2022/10/09 04:53:44;;;;;;;18.20;7.00;;;;;;;11.76;68.57;99631.33;102990;1293;109528;-74
2022/10/09 04:56:15;;;;;;;19.30;6.60;;;;;;;11.72;68.47;99636.59;103066;1295;96505;-74
2022/10/09 04:58:45;;;;;;;19.30;6.40;;;;;;;11.66;68.55;99642.33;103026;1312;107539;-73
2022/10/09 05:01:22;;;;;;;16.60;6.00;;;;;;;11.62;68.70;99650.89;102984;1290;96556;-73
2022/10/09 05:03:53;;;;;;;17.20;6.20;;;;;;;11.59;68.72;99657.36;103157;1296;96536;-75
2022/10/09 05:06:23;;;;;;;22.30;6.00;;;;;;;11.58;68.67;99659.15;103061;1306;110173;-74
2022/10/09 05:08:54;;;;;;;17.10;6.20;;;;;;;11.57;68.85;99659.93;103107;1296;94366;-75
2022/10/09 05:11:25;;;;;;;14.40;5.60;;;;;;;11.55;68.72;99661.50;103025;1290;108032;-79
2022/10/09 05:13:56;;;;;;;15.50;6.00;;;;;;;11.56;68.84;99658.77;103020;1295;95014;-74
2022/10/09 05:16:27;;;;;;;20.40;6.80;;;;;;;11.58;68.95;99665.08;103133;1290;94504;-75
2022/10/09 05:18:59;;;;;;;19.30;6.80;;;;;;;11.58;68.76;99670.39;103083;1295;109459;-74
2022/10/09 05:21:30;;;;;;;23.90;6.50;;;;;;;11.56;68.87;99670.31;103132;1305;96567;-74
2022/10/09 05:23:57;;;;;;;18.60;6.10;;;;;;;11.55;68.81;99670.91;103102;1295;106196;-74
2022/10/09 05:26:27;;;;;;;18.50;6.00;;;;;;;11.55;68.85;99674.80;103155;1290;96569;-74
2022/10/09 05:28:56;;;;;;;17.30;6.20;;;;;;;11.57;68.87;99683.58;103136;1301;96553;-74
2022/10/09 05:31:30;;;;;;;17.80;6.00;;;;;;;11.56;68.88;99683.80;103129;1295;109821;-73
2022/10/09 05:34:01;;;;;;;18.00;6.00;;;;;;;11.55;68.82;99690.14;103192;1296;94356;-73
2022/10/09 05:36:31;;;;;;;17.00;5.80;;;;;;;11.55;68.89;99691.19;103078;1296;107212;-75
2022/10/09 05:39:02;;;;;;;14.40;5.70;;;;;;;11.54;68.91;99692.14;103099;1301;97672;-73
2022/10/09 05:41:31;;;;;;;15.20;6.20;;;;;;;11.55;68.80;99693.98;103110;1297;96977;-74
2022/10/09 05:44:02;;;;;;;19.50;7.00;;;;;;;11.55;68.88;99697.55;103045;1290;109847;-74
2022/10/09 05:46:30;;;;;;;16.60;6.40;;;;;;;11.56;68.93;99704.10;103104;1304;97861;-75
2022/10/09 05:49:04;;;;;;;18.60;7.30;;;;;;;11.56;69.01;99707.60;103063;1297;107381;-74
2022/10/09 05:51:36;;;;;;;16.40;6.50;;;;;;;11.58;69.05;99708.57;103120;1296;98988;-79
2022/10/09 05:54:05;;;;;;;17.00;6.80;;;;;;;11.57;68.95;99715.57;103077;1290;97948;-75
2022/10/09 05:56:37;;;;;;;14.30;6.20;;;;;;;11.55;68.93;99721.73;103005;1293;111150;-76
2022/10/09 05:59:12;;;;;;;17.00;6.30;;;;;;;11.53;68.97;99727.57;102937;1301;97805;-75
2022/10/09 06:01:48;;;;;;;18.40;7.30;;;;;;;11.51;69.23;99730.73;103045;1297;107601;-76
2022/10/09 06:04:19;;;;;;;18.20;6.40;;;;;;;11.47;69.04;99737.35;103042;1295;97853;-75
2022/10/09 06:06:49;;;;;;;19.50;7.00;;;;;;;11.44;68.98;99740.02;103042;1295;98006;-75
2022/10/09 06:09:21;;;;;;;23.10;6.70;;;;;;;11.41;69.04;99746.96;103093;1298;110772;-76
2022/10/09 06:11:53;;;;;;;19.00;6.60;;;;;;;11.41;69.03;99752.85;103075;1296;98003;-75
2022/10/09 06:14:24;;;;;;;17.30;7.00;;;;;;;11.39;68.97;99763.45;103091;1296;107465;-75
2022/10/09 06:16:52;;;;;;;18.70;6.90;;;;;;;11.36;68.96;99764.16;103051;1304;95134;-75
2022/10/09 06:19:21;;;;;;;16.60;6.80;;;;;;;11.36;69.03;99769.66;102949;1304;98202;-73
2022/10/09 06:21:51;;;;;;;21.10;6.40;;;;;;;11.36;69.01;99770.41;102987;1298;111137;-75
2022/10/09 06:24:25;;;;;;;16.90;7.20;;;;;;;11.36;69.10;99778.21;103044;1297;95754;-75
2022/10/09 06:26:57;;;;;;;18.80;6.50;;;;;;;11.39;69.10;99777.81;103150;1297;107442;-72
2022/10/09 06:29:25;;;;;;;15.10;6.10;;;;;;;11.43;69.09;99782.88;103115;1293;96579;-72
2022/10/09 06:31:57;;;;;;;14.30;6.20;;;;;;;11.46;69.01;99783.38;103072;1296;97902;-74
2022/10/09 06:34:26;;;;;;;17.00;6.10;;;;;;;11.49;69.19;99785.85;103082;1293;111289;-75
2022/10/09 06:36:54;;;;;;;16.80;6.20;;;;;;;11.56;69.19;99793.44;103045;1304;97973;-74
2022/10/09 06:39:25;;;;;;;18.70;6.90;;;;;;;11.60;69.07;99796.17;103059;1302;107170;-76
2022/10/09 06:41:54;;;;;;;15.90;6.30;;;;;;;11.66;69.01;99796.54;103022;1297;97872;-73
2022/10/09 06:44:24;;;;;;;16.50;7.20;;;;;;;11.71;69.07;99801.67;103130;1297;97874;-73
2022/10/09 06:46:52;;;;;;;18.90;6.20;;;;;;;11.76;69.04;99804.53;103137;1300;111075;-74
2022/10/09 06:49:22;;;;;;;15.90;5.90;;;;;;;11.83;69.04;99805.88;103092;1301;96692;-74
2022/10/09 06:51:49;;;;;;;18.50;6.10;;;;;;;11.88;68.84;99813.17;103060;1280;105951;-74
2022/10/09 06:54:17;;;;;;;17.60;6.80;;;;;;;11.89;68.99;99811.84;103034;1301;95203;-73
2022/10/09 06:56:45;;;;;;;17.30;5.90;;;;;;;11.96;68.92;99815.52;103099;1303;97959;-74
2022/10/09 06:59:12;;;;;;;10.30;4.80;;;;;;;12.04;68.86;99820.35;102989;1280;111134;-74
2022/10/09 07:01:40;;;;;;;16.80;5.60;;;;;;;12.06;68.71;99827.15;103073;1296;95830;-74
2022/10/09 07:04:13;;;;;;;16.00;6.10;;;;;;;12.02;68.83;99826.15;103065;1293;107345;-75
2022/10/09 07:06:46;;;;;;;15.40;5.60;;;;;;;12.02;68.83;99832.39;103057;1300;96299;-74
2022/10/09 07:09:14;;;;;;;15.50;5.60;;;;;;;12.01;68.74;99831.02;103125;1297;97896;-74
2022/10/09 07:11:47;;;;;;;17.70;5.50;;;;;;;11.99;68.70;99836.14;103091;1301;111122;-76
2022/10/09 07:14:18;;;;;;;15.40;5.40;;;;;;;11.97;68.63;99833.62;103107;1303;97883;-75
2022/10/09 07:16:48;;;;;;;13.60;5.70;;;;;;;11.92;68.67;99835.30;103086;1300;110247;-75
2022/10/09 07:19:18;;;;;;;14.20;5.60;;;;;;;11.93;68.75;99834.38;103137;1300;97981;-75
2022/10/09 07:21:48;;;;;;;17.40;5.40;;;;;;;11.94;68.69;99835.36;103041;1297;98299;-78
2022/10/09 07:24:19;;;;;;;16.70;5.70;;;;;;;11.96;68.77;99839.35;103024;1301;110640;-75
2022/10/09 07:26:47;;;;;;;17.80;5.90;;;;;;;12.02;68.79;99837.73;103096;1297;97831;-74
2022/10/09 07:29:18;;;;;;;17.10;6.20;;;;;;;12.06;68.73;99845.60;103027;1304;107378;-74
2022/10/09 07:31:49;;;;;;;15.90;6.30;;;;;;;12.09;68.67;99845.98;103059;1290;97997;-74
2022/10/09 07:34:20;;;;;;;16.10;5.00;;;;;;;12.06;68.67;99844.36;103085;1304;97883;-74
2022/10/09 07:36:48;;;;;;;16.90;5.30;;;;;;;12.05;68.71;99849.56;103030;1287;111236;-74
2022/10/09 07:39:18;;;;;;;15.90;5.20;;;;;;;12.10;68.74;99853.17;103021;1297;98532;-68
2022/10/09 07:41:51;;;;;;;12.60;5.10;;;;;;;12.18;68.85;99852.65;103036;1298;107550;-69
2022/10/09 07:44:18;;;;;;;16.70;5.70;;;;;;;12.33;69.00;99853.10;103130;1298;97922;-69
2022/10/09 07:46:50;;;;;;;15.10;4.90;;;;;;;12.46;68.81;99857.70;103069;1303;97895;-77
2022/10/09 07:49:18;;;;;;;16.60;4.50;;;;;;;12.60;68.80;99852.86;103247;1304;111176;-74
2022/10/09 07:51:46;;;;;;;14.20;4.30;;;;;;;12.70;68.53;99853.64;104409;1301;96593;-76
2022/10/09 07:54:14;;;;;;;11.20;4.10;;;;;;;12.73;68.54;99856.64;104514;1304;106222;-77
2022/10/09 07:56:41;;;;;;;13.00;4.40;;;;;;;12.76;68.29;99851.61;104496;1295;97970;-77
2022/10/09 07:59:15;;;;;;;10.30;4.20;;;;;;;12.79;68.48;99850.16;103134;1301;97914;-79
2022/10/09 08:01:45;;;;;;;11.60;3.90;;;;;;;12.83;68.44;99858.05;103008;1293;111118;-77
2022/10/09 08:04:13;;;;;;;9.40;3.40;;;;;;;12.80;68.26;99859.84;103018;1297;97900;-77
2022/10/09 08:06:40;;;;;;;9.40;3.60;;;;;;;12.78;68.21;99861.04;103023;1303;106472;-78
2022/10/09 08:09:08;;;;;;;9.80;3.50;;;;;;;12.82;68.04;99867.56;103050;1298;97962;-74
2022/10/09 08:11:39;;;;;;;14.00;4.30;;;;;;;12.86;68.08;99865.52;103042;1296;97850;-79
2022/10/09 08:14:12;;;;;;;25.60;11.00;;;;;;;12.87;68.00;99867.03;102970;1290;111138;-74
2022/10/09 08:16:48;;;;;;;25.10;11.30;;;;;;;12.93;68.41;99863.94;103060;1298;97881;-74
2022/10/09 08:19:16;;;;;;;15.70;6.10;;;;;;;13.06;68.44;99864.85;102964;1304;107595;-72
2022/10/09 08:21:47;;;;;;;11.60;3.80;;;;;;;13.06;67.85;99871.97;103015;1301;97936;-74
2022/10/09 08:24:14;;;;;;;12.20;3.70;;;;;;;12.90;67.60;99874.52;103049;1297;97912;-72
2022/10/09 08:26:43;;;;;;;14.50;4.10;;;;;;;12.79;67.62;99882.69;103100;1297;110859;-73
2022/10/09 08:29:14;;;;;;;10.00;3.70;;;;;;;12.73;67.65;99880.61;103085;1302;97978;-73
2022/10/09 08:31:42;;;;;;;10.20;3.50;;;;;;;12.90;67.56;99875.70;103065;1304;107567;-71
2022/10/09 08:34:11;;;;;;;5.90;3.30;;;;;;;13.24;67.57;99874.40;103096;1298;97757;-71
2022/10/09 08:36:38;;;;;;;7.90;3.00;;;;;;;13.67;67.02;99878.36;103155;1295;97865;-72
2022/10/09 08:39:06;;;;;;;9.70;3.20;;;;;;;13.95;66.91;99880.63;103071;1298;111337;-72
2022/10/09 16:49:02;;;;;;;23.70;10.00;;;;;;;12.21;58.02;99958.98;103109;1279;108933;-77
2022/10/09 16:51:35;;;;;;;38.60;19.50;;;;;;;12.11;58.07;99957.13;102896;1296;97883;-72
2022/10/09 16:54:05;;;;;;;26.70;11.70;;;;;;;12.04;58.04;99960.08;102974;1299;97849;-73
2022/10/09 16:56:38;;;;;;;25.80;11.50;;;;;;;11.98;58.14;99960.42;102928;1298;111152;-72
2022/10/09 16:59:12;;;;;;;28.10;10.90;;;;;;;11.93;58.07;99957.73;103009;1305;98760;-71
2022/10/09 17:01:43;;;;;;;23.90;9.60;;;;;;;11.87;58.10;99961.85;102990;1297;107507;-75
2022/10/09 17:04:13;;;;;;;25.20;9.60;;;;;;;11.79;58.06;99963.43;102952;1303;97889;-76
2022/10/09 17:06:44;;;;;;;24.10;9.70;;;;;;;11.71;58.10;99964.23;103037;1296;97918;-75
2022/10/09 17:09:15;;;;;;;22.90;10.00;;;;;;;11.63;58.14;99964.78;103065;1300;110733;-75
2022/10/09 17:11:43;;;;;;;24.10;10.90;;;;;;;11.53;58.18;99962.01;103066;1298;95947;-75
2022/10/09 17:14:12;;;;;;;24.10;9.90;;;;;;;11.42;58.18;99961.95;102994;1289;107474;-76
2022/10/09 17:16:42;;;;;;;25.60;10.70;;;;;;;11.30;58.20;99961.45;103077;1303;97870;-74
2022/10/09 17:19:11;;;;;;;24.30;11.40;;;;;;;11.17;58.23;99964.36;103131;1305;96252;-72
2022/10/09 17:21:42;;;;;;;24.20;10.30;;;;;;;11.07;58.28;99968.69;103103;1302;111299;-76
2022/10/09 17:24:14;;;;;;;23.90;10.20;;;;;;;10.96;58.29;99965.98;103100;1302;95560;-74
2022/10/09 17:26:42;;;;;;;26.30;10.20;;;;;;;10.85;58.40;99970.52;103036;1299;105786;-73
2022/10/09 17:29:12;;;;;;;22.40;9.20;;;;;;;10.75;58.40;99973.95;103092;1298;97764;-75
2022/10/09 17:31:40;;;;;;;24.80;9.90;;;;;;;10.66;58.47;99973.08;103136;1290;95248;-76
2022/10/09 17:34:10;;;;;;;25.90;8.90;;;;;;;10.56;58.40;99981.61;103077;1296;110933;-75
2022/10/09 17:36:41;;;;;;;25.00;10.40;;;;;;;10.46;58.40;99980.77;103057;1297;97953;-74
2022/10/09 17:39:15;;;;;;;23.30;10.60;;;;;;;10.34;58.44;99984.08;103026;1300;107464;-74
2022/10/09 17:41:48;;;;;;;23.70;9.80;;;;;;;10.22;58.51;99984.03;103052;1303;95133;-76
2022/10/09 17:44:16;;;;;;;24.60;9.40;;;;;;;10.13;58.71;99985.82;103167;1305;96962;-77
2022/10/09 17:46:44;;;;;;;24.70;9.90;;;;;;;10.08;58.81;99986.27;103045;1297;110419;-74
2022/10/09 17:49:12;;;;;;;23.80;9.60;;;;;;;10.05;58.87;99987.13;103182;1304;98042;-74
2022/10/09 17:51:41;;;;;;;22.40;9.50;;;;;;;10.04;58.88;99989.15;103102;1299;107567;-75
2022/10/09 17:54:15;;;;;;;22.00;9.60;;;;;;;10.02;58.91;99989.09;103129;1298;97872;-75
2022/10/09 17:56:45;;;;;;;20.40;9.50;;;;;;;10.00;58.93;99992.18;103155;1297;98628;-77
2022/10/09 17:59:15;;;;;;;22.10;9.10;;;;;;;9.97;58.93;99995.54;103177;1299;111532;-75
2022/10/09 18:01:46;;;;;;;21.70;9.10;;;;;;;9.94;58.93;99995.36;103088;1298;97873;-75
2022/10/09 18:04:16;;;;;;;26.40;12.90;;;;;;;9.90;59.10;99995.91;103078;1297;107602;-75
2022/10/09 18:06:44;;;;;;;24.90;10.60;;;;;;;9.89;59.20;99999.68;103105;1300;95197;-75
2022/10/09 18:09:12;;;;;;;25.50;10.50;;;;;;;9.86;59.15;100000.58;103154;1302;97876;-74
2022/10/09 18:11:44;;;;;;;23.30;10.40;;;;;;;9.82;59.14;100001.14;103148;1299;112183;-75
2022/10/09 18:14:11;;;;;;;24.00;10.90;;;;;;;9.79;59.24;100002.03;103143;1300;97978;-75
2022/10/09 18:16:40;;;;;;;25.20;11.50;;;;;;;9.75;59.21;100003.85;103093;1304;107552;-74
2022/10/09 18:19:14;;;;;;;25.60;11.80;;;;;;;9.69;59.26;100007.52;103086;1291;98020;-74
2022/10/09 18:21:46;;;;;;;22.80;10.60;;;;;;;9.63;59.28;100008.34;103042;1299;98005;-73
2022/10/09 18:24:15;;;;;;;25.40;11.00;;;;;;;9.55;59.33;100009.84;103056;1297;111145;-76
2022/10/09 18:26:45;;;;;;;24.60;10.90;;;;;;;9.48;59.42;100014.66;103074;1290;96216;-76
2022/10/09 18:29:14;;;;;;;25.00;11.40;;;;;;;9.40;59.29;100020.73;103047;1299;108063;-74
2022/10/09 18:31:41;;;;;;;23.30;10.00;;;;;;;9.31;59.52;100026.66;103098;1297;97952;-71
2022/10/09 18:34:09;;;;;;;25.70;9.80;;;;;;;9.27;59.52;100025.14;103118;1287;95382;-72
2022/10/09 18:36:38;;;;;;;23.40;8.90;;;;;;;9.24;59.54;100029.66;103039;1296;111243;-74
2022/10/09 18:39:12;;;;;;;20.90;9.30;;;;;;;9.21;59.72;100030.36;103022;1297;98059;-74
2022/10/09 18:41:42;;;;;;;24.50;9.60;;;;;;;9.17;59.74;100038.55;103089;1299;106525;-73
2022/10/09 18:44:16;;;;;;;24.40;9.50;;;;;;;9.14;59.78;100044.02;103071;1306;96046;-75
2022/10/09 18:46:53;;;;;;;20.90;9.40;;;;;;;9.11;59.90;100043.98;103090;1307;98011;-75
2022/10/09 18:49:30;;;;;;;22.40;9.80;;;;;;;9.09;60.01;100049.37;102980;1305;111822;-76
2022/10/09 18:52:01;;;;;;;23.00;9.30;;;;;;;9.05;59.93;100054.35;103020;1305;97863;-75
2022/10/09 18:54:30;;;;;;;22.60;10.20;;;;;;;9.01;60.02;100055.27;103036;1297;107376;-77
2022/10/09 18:57:00;;;;;;;22.90;9.20;;;;;;;8.97;60.11;100062.35;103111;1297;96121;-76
2022/10/09 18:59:34;;;;;;;23.30;9.30;;;;;;;8.95;60.10;100064.43;103132;1305;97933;-77
2022/10/09 19:02:02;;;;;;;21.70;9.20;;;;;;;8.89;60.07;100063.98;103108;1298;110933;-76
2022/10/09 19:04:30;;;;;;;25.70;11.20;;;;;;;8.84;60.17;100066.71;103045;1299;97849;-75
2022/10/09 19:06:58;;;;;;;29.40;14.40;;;;;;;8.79;60.20;100069.81;102980;1300;107169;-74
2022/10/09 19:09:26;;;;;;;46.80;21.50;;;;;;;8.74;60.14;100072.89;103058;1306;97987;-75
2022/10/09 19:11:54;;;;;;;48.80;24.50;;;;;;;8.70;60.29;100075.02;103086;1303;97907;-75
2022/10/09 19:14:22;;;;;;;99.40;51.30;;;;;;;8.66;60.35;100077.12;103110;1298;111224;-75
2022/10/09 19:16:50;;;;;;;134.20;68.20;;;;;;;8.62;60.38;100076.80;103116;1297;98013;-77
2022/10/09 19:19:20;;;;;;;142.20;75.40;;;;;;;8.56;60.38;100076.20;103134;1299;107183;-75
2022/10/09 19:21:48;;;;;;;136.00;71.80;;;;;;;8.50;60.54;100078.23;102986;1283;97877;-76
2022/10/09 19:24:16;;;;;;;126.80;66.90;;;;;;;8.45;60.52;100082.86;103018;1290;96962;-75
2022/10/09 19:26:46;;;;;;;117.90;64.80;;;;;;;8.42;60.64;100087.46;103087;1300;111212;-76
2022/10/09 19:29:14;;;;;;;121.30;63.20;;;;;;;8.36;60.67;100089.65;103085;1297;97890;-75
2022/10/09 19:31:41;;;;;;;118.10;61.00;;;;;;;8.31;60.63;100091.15;102881;1300;107602;-74
2022/10/09 19:34:11;;;;;;;82.70;44.80;;;;;;;8.25;60.79;100090.35;102990;1307;97866;-74